createdAt,value
2024-05-09T00:00:39.212Z,14.68
2024-05-09T00:03:08.631Z,14.59
2024-05-09T00:05:37.021Z,14.57
2024-05-09T00:08:04.708Z,14.63
2024-05-09T00:10:36.588Z,14.65
2024-05-09T00:13:06.985Z,14.68
2024-05-09T00:15:34.798Z,14.60
2024-05-09T00:18:03.139Z,14.51
2024-05-09T00:20:37.569Z,14.54
2024-05-09T00:23:12.454Z,14.58
2024-05-09T00:25:44.888Z,14.46
2024-05-09T00:28:13.083Z,14.51
2024-05-09T00:30:40.209Z,14.53
2024-05-09T00:33:09.320Z,14.45
2024-05-09T00:35:38.399Z,14.51
2024-05-09T00:38:05.724Z,14.53
2024-05-09T00:40:40.892Z,14.53
2024-05-09T00:43:14.466Z,14.54
2024-05-09T00:45:42.983Z,14.59
2024-05-09T00:48:14.191Z,14.48
2024-05-09T00:50:45.071Z,14.20
2024-05-09T00:53:14.206Z,14.34
2024-05-09T00:55:41.958Z,14.36
2024-05-09T00:58:12.087Z,14.38
2024-05-09T01:00:41.208Z,14.39
2024-05-09T01:03:11.971Z,14.41
2024-05-09T01:05:41.406Z,14.43
2024-05-09T01:08:09.894Z,14.46
2024-05-09T01:10:37.540Z,14.41
2024-05-09T01:13:05.533Z,14.44
2024-05-09T01:15:33.657Z,14.44
2024-05-09T01:18:04.077Z,14.42
2024-05-09T01:20:39.886Z,14.40
2024-05-09T01:23:10.526Z,14.39
2024-05-09T01:25:37.904Z,14.43
2024-05-09T01:28:05.828Z,14.45
2024-05-09T01:30:35.755Z,14.47
2024-05-09T01:33:09.859Z,14.53
2024-05-09T01:35:39.234Z,14.54
2024-05-09T01:38:07.330Z,14.59
2024-05-09T01:40:38.603Z,14.61
2024-05-09T01:43:08.795Z,14.59
2024-05-09T01:45:36.917Z,14.60
2024-05-09T01:48:04.542Z,14.57
2024-05-09T01:53:01.851Z,14.59
2024-05-09T01:55:28.742Z,14.56
2024-05-09T01:57:55.681Z,14.49
2024-05-09T02:00:33.879Z,14.26
2024-05-09T02:03:14.692Z,14.14
2024-05-09T02:05:45.081Z,14.24
2024-05-09T02:08:17.188Z,14.31
2024-05-09T02:10:45.388Z,14.33
2024-05-09T02:13:13.347Z,14.36
2024-05-09T02:15:40.390Z,14.30
2024-05-09T02:18:08.861Z,14.26
2024-05-09T02:20:39.045Z,14.32
2024-05-09T02:23:06.891Z,14.29
2024-05-09T02:25:34.490Z,14.32
2024-05-09T02:28:01.691Z,14.36
2024-05-09T02:30:38.072Z,14.40
2024-05-09T02:33:09.686Z,14.38
2024-05-09T02:35:38.144Z,14.41
2024-05-09T02:38:05.334Z,14.40
2024-05-09T02:40:37.544Z,14.40
2024-05-09T02:43:07.490Z,14.33
2024-05-09T02:45:34.646Z,14.33
2024-05-09T02:48:02.228Z,14.20
2024-05-09T02:50:36.722Z,14.31
2024-05-09T02:53:07.616Z,14.31
2024-05-09T02:55:35.065Z,14.20
2024-05-09T02:58:02.075Z,14.34
2024-05-09T03:00:37.673Z,14.36
2024-05-09T03:03:09.480Z,14.33
2024-05-09T03:05:38.347Z,14.34
2024-05-09T03:08:05.879Z,14.24
2024-05-09T03:10:36.434Z,14.32
2024-05-09T03:13:10.000Z,13.93
2024-05-09T03:15:37.217Z,14.11
2024-05-09T03:18:05.176Z,14.05
2024-05-09T03:20:35.067Z,13.92
2024-05-09T03:23:04.545Z,13.87
2024-05-09T03:25:31.726Z,14.04
2024-05-09T03:27:59.333Z,14.03
2024-05-09T03:30:38.896Z,14.00
2024-05-09T03:33:11.057Z,13.92
2024-05-09T03:35:38.583Z,13.91
2024-05-09T03:38:05.569Z,13.92
2024-05-09T03:40:32.720Z,13.93
2024-05-09T03:42:59.627Z,13.95
2024-05-09T03:45:26.466Z,13.92
2024-05-09T03:47:53.642Z,13.91
2024-05-09T03:50:29.571Z,13.91
2024-05-09T03:53:01.431Z,13.93
2024-05-09T03:55:28.572Z,13.91
2024-05-09T03:57:55.567Z,13.97
2024-05-09T04:00:31.240Z,13.98
2024-05-09T04:03:06.986Z,14.00
2024-05-09T04:05:36.862Z,14.00
2024-05-09T04:08:04.002Z,13.92
2024-05-09T04:10:33.987Z,13.90
2024-05-09T04:13:02.770Z,13.90
2024-05-09T04:15:29.920Z,13.91
2024-05-09T04:17:56.998Z,13.85
2024-05-09T04:20:33.718Z,13.88
2024-05-09T04:23:07.174Z,13.87
2024-05-09T04:25:35.024Z,13.88
2024-05-09T04:28:02.019Z,13.82
2024-05-09T04:30:36.670Z,13.76
2024-05-09T04:33:09.222Z,13.72
2024-05-09T04:35:39.003Z,13.69
2024-05-09T04:38:06.302Z,13.55
2024-05-09T04:40:36.273Z,13.42
2024-05-09T04:43:13.732Z,13.34
2024-05-09T04:45:41.122Z,13.47
2024-05-09T04:48:09.056Z,13.50
2024-05-09T04:50:38.807Z,13.46
2024-05-09T04:53:10.399Z,13.38
2024-05-09T04:55:39.153Z,13.49
2024-05-09T04:58:09.828Z,13.58
2024-05-09T05:00:38.984Z,13.65
2024-05-09T05:03:14.571Z,13.64
2024-05-09T05:05:44.590Z,13.55
2024-05-09T05:08:17.149Z,13.59
2024-05-09T05:10:45.834Z,13.67
2024-05-09T05:13:20.000Z,13.75
2024-05-09T05:15:49.583Z,13.85
2024-05-09T05:18:16.873Z,13.92
2024-05-09T05:20:44.508Z,14.01
2024-05-09T05:23:16.393Z,14.03
2024-05-09T05:25:44.831Z,14.02
2024-05-09T05:28:11.704Z,14.07
2024-05-09T05:30:39.163Z,14.11
2024-05-09T05:33:07.573Z,14.12
2024-05-09T05:35:34.896Z,14.14
2024-05-09T05:38:03.349Z,14.15
2024-05-09T05:40:37.006Z,14.19
2024-05-09T05:43:18.486Z,14.22
2024-05-09T05:45:46.033Z,14.09
2024-05-09T05:48:13.547Z,14.22
2024-05-09T05:50:40.766Z,14.11
2024-05-09T05:53:08.699Z,14.11
2024-05-09T05:55:37.194Z,13.80
2024-05-09T05:58:04.236Z,14.00
2024-05-09T06:00:38.233Z,13.94
2024-05-09T06:03:08.603Z,14.15
2024-05-09T06:05:37.354Z,14.15
2024-05-09T06:08:04.883Z,14.23
2024-05-09T06:10:38.075Z,14.29
2024-05-09T06:13:08.208Z,14.35
2024-05-09T06:15:35.126Z,14.40
2024-05-09T06:18:05.893Z,14.26
2024-05-09T06:20:36.526Z,14.32
2024-05-09T06:23:09.956Z,14.36
2024-05-09T06:28:05.291Z,14.53
2024-05-09T06:30:40.388Z,14.58
2024-05-09T06:33:11.950Z,14.63
2024-05-09T06:35:41.028Z,14.71
2024-05-09T06:38:11.727Z,14.75
2024-05-09T06:40:42.580Z,14.80
2024-05-09T06:43:19.177Z,14.86
2024-05-09T06:45:48.704Z,14.91
2024-05-09T06:48:19.329Z,14.93
2024-05-09T06:50:46.809Z,15.02
2024-05-09T06:53:17.684Z,15.06
2024-05-09T06:55:44.894Z,15.09
2024-05-09T06:58:12.077Z,15.13
2024-05-09T07:00:41.209Z,15.01
2024-05-09T07:03:11.581Z,15.11
2024-05-09T07:05:39.839Z,15.24
2024-05-09T07:08:07.641Z,15.09
2024-05-09T07:10:36.626Z,15.26
2024-05-09T07:13:11.610Z,15.32
2024-05-09T07:15:39.523Z,15.41
2024-05-09T07:18:09.602Z,15.44
2024-05-09T07:20:36.754Z,15.48
2024-05-09T07:23:03.840Z,15.50
2024-05-09T07:25:30.959Z,15.53
2024-05-09T07:27:57.894Z,15.58
2024-05-09T07:30:32.679Z,15.64
2024-05-09T07:33:02.320Z,15.70
2024-05-09T07:35:30.457Z,15.84
2024-05-09T07:37:57.774Z,15.93
2024-05-09T07:40:32.824Z,15.69
2024-05-09T07:43:13.340Z,15.77
2024-05-09T07:45:49.908Z,15.77
2024-05-09T07:53:39.311Z,15.89
2024-05-09T07:56:10.223Z,15.95
2024-05-09T07:58:38.871Z,16.12
2024-05-09T08:01:06.350Z,16.24
2024-05-09T08:03:34.221Z,16.39
2024-05-09T08:06:01.521Z,16.44
2024-05-09T08:08:28.471Z,16.49
2024-05-09T08:10:55.543Z,16.51
2024-05-09T08:13:22.879Z,16.63
2024-05-09T08:15:50.182Z,16.67
2024-05-09T08:18:17.844Z,16.80
2024-05-09T08:20:49.676Z,16.68
2024-05-09T08:23:16.739Z,16.64
2024-05-09T08:25:44.056Z,16.73
2024-05-09T08:28:11.789Z,16.75
2024-05-09T08:30:38.888Z,16.80
2024-05-09T08:33:07.133Z,16.85
2024-05-09T08:35:35.404Z,16.75
2024-05-09T08:38:07.151Z,17.03
2024-05-09T08:40:36.785Z,17.10
2024-05-09T08:43:11.410Z,17.16
2024-05-09T08:45:43.783Z,17.15
2024-05-09T08:48:15.042Z,17.13
2024-05-09T08:50:43.507Z,17.07
2024-05-09T08:53:10.700Z,17.25
2024-05-09T08:55:41.596Z,17.29
2024-05-09T08:58:16.643Z,17.36
2024-05-09T09:00:45.026Z,17.50
2024-05-09T09:03:18.190Z,17.45
2024-05-09T09:06:01.641Z,17.55
2024-05-09T09:08:28.728Z,17.64
2024-05-09T09:10:58.363Z,17.66
2024-05-09T09:13:28.365Z,17.77
2024-05-09T09:15:58.862Z,17.81
2024-05-09T09:18:27.166Z,17.90
2024-05-09T09:20:54.884Z,17.91
2024-05-09T09:23:21.908Z,17.91
2024-05-09T09:25:48.664Z,17.93
2024-05-09T09:28:16.047Z,17.93
2024-05-09T09:30:43.541Z,17.97
2024-05-09T09:33:11.256Z,18.00
2024-05-09T09:35:40.568Z,18.06
2024-05-09T09:38:10.079Z,18.07
2024-05-09T09:40:46.537Z,18.22
2024-05-09T09:43:21.964Z,18.24
2024-05-09T09:45:53.424Z,18.28
2024-05-09T09:48:22.638Z,18.36
2024-05-09T09:50:52.173Z,18.48
2024-05-09T09:53:23.329Z,18.50
2024-05-09T09:55:52.228Z,18.67
2024-05-09T09:58:19.809Z,18.58
2024-05-09T10:00:47.171Z,18.70
2024-05-09T10:03:14.292Z,18.82
2024-05-09T10:05:45.090Z,18.97
2024-05-09T10:08:15.072Z,18.99
2024-05-09T10:10:46.957Z,19.14
2024-05-09T10:13:14.292Z,19.12
2024-05-09T10:15:51.265Z,19.14
2024-05-09T10:18:28.054Z,19.24
2024-05-09T10:20:57.774Z,19.09
2024-05-09T10:23:29.601Z,19.22
2024-05-09T10:26:01.804Z,19.39
2024-05-09T10:28:30.737Z,19.33
2024-05-09T10:31:08.789Z,19.34
2024-05-09T10:33:51.611Z,19.51
2024-05-09T10:36:21.735Z,19.66
2024-05-09T10:38:50.799Z,19.66
2024-05-09T10:41:19.279Z,19.68
2024-05-09T10:43:47.654Z,19.59
2024-05-09T10:46:15.045Z,19.65
2024-05-09T10:48:44.076Z,19.79
2024-05-09T10:51:11.789Z,19.75
2024-05-09T10:53:42.474Z,19.95
2024-05-09T10:56:10.076Z,20.03
2024-05-09T10:58:37.420Z,19.98
2024-05-09T11:01:07.011Z,20.02
2024-05-09T11:03:35.639Z,20.12
2024-05-09T11:06:03.421Z,20.17
2024-05-09T11:08:32.723Z,20.34
2024-05-09T11:11:00.163Z,20.30
2024-05-09T11:13:31.747Z,20.31
2024-05-09T11:16:00.313Z,20.43
2024-05-09T11:18:33.804Z,20.50
2024-05-09T11:21:12.404Z,20.45
2024-05-09T11:23:39.904Z,20.53
2024-05-09T11:26:07.200Z,20.59
2024-05-09T11:28:36.014Z,20.78
2024-05-09T11:31:07.930Z,20.73
2024-05-09T11:33:47.806Z,20.89
2024-05-09T11:36:15.338Z,21.04
2024-05-09T11:38:42.720Z,21.09
2024-05-09T11:41:16.771Z,21.06
2024-05-09T11:43:44.239Z,21.14
2024-05-09T11:46:11.243Z,21.13
2024-05-09T11:48:39.958Z,21.14
2024-05-09T11:51:07.053Z,21.14
2024-05-09T11:53:34.116Z,21.20
2024-05-09T11:56:01.161Z,21.33
2024-05-09T11:58:29.873Z,21.30
2024-05-09T12:00:57.226Z,21.26
2024-05-09T12:03:24.546Z,21.47
2024-05-09T12:05:51.672Z,21.52
2024-05-09T12:08:18.950Z,21.51
2024-05-09T12:10:46.409Z,21.56
2024-05-09T12:13:13.692Z,21.58
2024-05-09T12:15:40.777Z,21.62
2024-05-09T12:18:08.460Z,21.66
2024-05-09T12:20:38.630Z,21.79
2024-05-09T12:23:09.736Z,21.88
2024-05-09T12:25:39.063Z,21.92
2024-05-09T12:28:06.872Z,21.83
2024-05-09T12:30:38.324Z,21.86
2024-05-09T12:33:12.704Z,21.82
2024-05-09T12:35:41.086Z,21.94
2024-05-09T12:38:09.115Z,21.97
2024-05-09T12:40:38.415Z,21.91
2024-05-09T12:43:08.319Z,21.96
2024-05-09T12:45:36.594Z,21.97
2024-05-09T12:48:06.868Z,21.96
2024-05-09T12:50:34.841Z,22.04
2024-05-09T12:53:03.351Z,22.01
2024-05-09T12:55:37.619Z,22.02
2024-05-09T12:58:12.239Z,22.07
2024-05-09T13:00:39.373Z,22.19
2024-05-09T13:03:07.211Z,22.21
2024-05-09T13:05:34.426Z,22.25
2024-05-09T13:08:03.531Z,22.28
2024-05-09T13:10:32.781Z,22.21
2024-05-09T13:13:01.871Z,22.29
2024-05-09T13:15:30.621Z,22.34
2024-05-09T13:18:01.641Z,22.46
2024-05-09T13:20:33.710Z,22.48
2024-05-09T13:23:08.224Z,22.42
2024-05-09T13:25:37.374Z,22.55
2024-05-09T13:28:05.510Z,22.62
2024-05-09T13:30:39.987Z,22.66
2024-05-09T13:33:13.482Z,22.71
2024-05-09T13:35:47.645Z,22.69
2024-05-09T13:38:21.439Z,22.80
2024-05-09T13:40:49.239Z,22.84
2024-05-09T13:43:17.608Z,22.86
2024-05-09T13:45:45.162Z,22.75
2024-05-09T13:48:12.283Z,22.69
2024-05-09T13:50:39.619Z,22.70
2024-05-09T13:53:08.212Z,22.69
2024-05-09T13:55:39.807Z,22.41
2024-05-09T13:58:08.818Z,22.61
2024-05-09T14:00:44.398Z,22.64
2024-05-09T14:03:16.963Z,22.69
2024-05-09T14:05:46.144Z,22.94
2024-05-09T14:08:15.423Z,23.01
2024-05-09T14:10:44.792Z,23.09
2024-05-09T14:13:12.976Z,23.18
2024-05-09T14:15:40.378Z,23.24
2024-05-09T14:18:11.526Z,23.21
2024-05-09T14:20:40.970Z,23.24
2024-05-09T14:23:07.962Z,23.19
2024-05-09T14:25:38.891Z,23.06
2024-05-09T14:28:09.210Z,22.90
2024-05-09T14:30:38.111Z,22.86
2024-05-09T14:33:07.487Z,22.69
2024-05-09T14:35:35.582Z,22.60
2024-05-09T14:38:03.494Z,22.52
2024-05-09T14:40:40.463Z,22.34
2024-05-09T14:43:15.331Z,22.48
2024-05-09T14:45:43.707Z,22.53
2024-05-09T14:48:12.140Z,22.53
2024-05-09T14:50:40.711Z,22.53
2024-05-09T14:53:12.035Z,22.37
2024-05-09T14:55:41.511Z,22.27
2024-05-09T14:58:10.398Z,22.36
2024-05-09T15:00:46.252Z,22.38
2024-05-09T15:03:18.094Z,22.41
2024-05-09T15:05:45.623Z,22.41
2024-05-09T15:08:12.713Z,22.30
2024-05-09T15:10:39.899Z,22.24
2024-05-09T15:13:08.894Z,22.39
2024-05-09T15:15:37.614Z,22.46
2024-05-09T15:18:05.732Z,22.48
2024-05-09T15:20:36.219Z,22.34
2024-05-09T15:23:06.073Z,22.23
2024-05-09T15:25:34.014Z,22.11
2024-05-09T15:28:01.291Z,21.93
2024-05-09T15:30:31.638Z,21.95
2024-05-09T15:33:01.545Z,22.06
2024-05-09T15:35:28.764Z,22.17
2024-05-09T15:37:56.200Z,22.25
2024-05-09T15:40:34.379Z,22.38
2024-05-09T15:43:06.677Z,22.22
2024-05-09T15:45:34.412Z,22.13
2024-05-09T15:48:02.583Z,22.15
2024-05-09T15:50:37.038Z,22.05
2024-05-09T15:53:08.687Z,21.94
2024-05-09T15:55:36.439Z,21.83
2024-05-09T15:58:04.469Z,21.74
2024-05-09T16:00:38.034Z,21.68
2024-05-09T16:03:10.103Z,21.80
2024-05-09T16:05:38.135Z,21.93
2024-05-09T16:08:06.466Z,22.01
2024-05-09T16:10:34.776Z,22.08
2024-05-09T16:13:03.451Z,22.21
2024-05-09T16:15:31.172Z,22.31
2024-05-09T16:17:58.607Z,22.35
2024-05-09T16:20:34.807Z,22.31
2024-05-09T16:23:08.495Z,22.15
2024-05-09T16:25:35.878Z,22.27
2024-05-09T16:28:07.037Z,22.32
2024-05-09T16:30:36.832Z,22.32
2024-05-09T16:33:05.255Z,22.29
2024-05-09T16:35:33.023Z,22.30
2024-05-09T16:38:02.042Z,22.27
2024-05-09T16:40:36.452Z,22.31
2024-05-09T16:43:07.528Z,22.31
2024-05-09T16:45:35.165Z,22.30
2024-05-09T16:48:02.645Z,22.32
2024-05-09T16:50:34.212Z,22.23
2024-05-09T16:53:06.741Z,22.14
2024-05-09T16:55:35.324Z,22.00
2024-05-09T16:58:03.439Z,22.08
2024-05-09T17:00:38.926Z,22.01
2024-05-09T17:03:11.567Z,22.02
2024-05-09T17:05:39.737Z,21.89
2024-05-09T17:08:08.067Z,21.92
2024-05-09T17:10:36.458Z,21.85
2024-05-09T17:13:05.496Z,21.74
2024-05-09T17:15:34.011Z,21.67
2024-05-09T17:18:01.718Z,21.54
2024-05-09T17:20:33.637Z,21.42
2024-05-09T17:23:05.123Z,21.20
2024-05-09T17:25:32.819Z,21.26
2024-05-09T17:28:06.291Z,21.18
2024-05-09T17:30:37.336Z,21.15
2024-05-09T17:33:07.773Z,21.12
2024-05-09T17:35:36.113Z,21.12
2024-05-09T17:38:05.102Z,21.05
2024-05-09T17:40:35.807Z,20.96
2024-05-09T17:43:05.587Z,20.95
2024-05-09T17:45:33.407Z,20.86
2024-05-09T17:48:01.527Z,20.87
2024-05-09T17:50:35.136Z,20.83
2024-05-09T17:53:05.612Z,20.78
2024-05-09T17:55:32.876Z,20.77
2024-05-09T17:58:00.194Z,20.66
2024-05-09T18:00:36.672Z,20.56
2024-05-09T18:03:07.592Z,20.59
2024-05-09T18:05:38.064Z,20.57
2024-05-09T18:08:06.787Z,20.37
2024-05-09T18:10:37.993Z,20.36
2024-05-09T18:13:08.331Z,20.35
2024-05-09T18:15:35.860Z,20.29
2024-05-09T18:18:03.645Z,20.22
2024-05-09T18:20:40.344Z,20.27
2024-05-09T18:23:13.385Z,20.14
2024-05-09T18:25:41.000Z,20.09
2024-05-09T18:28:08.441Z,20.05
2024-05-09T18:30:37.011Z,19.95
2024-05-09T18:33:07.651Z,20.07
2024-05-09T18:35:36.100Z,19.93
2024-05-09T18:38:03.305Z,20.02
2024-05-09T18:40:34.740Z,20.08
2024-05-09T18:43:06.481Z,20.11
2024-05-09T18:45:35.400Z,20.15
2024-05-09T18:48:04.831Z,20.16
2024-05-09T18:50:36.297Z,20.09
2024-05-09T18:53:06.627Z,20.02
2024-05-09T18:55:33.835Z,20.08
2024-05-09T18:58:01.160Z,20.05
2024-05-09T19:00:34.617Z,19.95
2024-05-09T19:03:09.195Z,19.89
2024-05-09T19:05:38.573Z,19.95
2024-05-09T19:08:06.225Z,19.91
2024-05-09T19:10:35.104Z,19.98
2024-05-09T19:13:08.188Z,19.91
2024-05-09T19:15:39.363Z,19.96
2024-05-09T19:18:07.555Z,19.97
2024-05-09T19:20:36.317Z,19.72
2024-05-09T19:23:06.028Z,19.59
2024-05-09T19:25:33.811Z,19.66
2024-05-09T19:28:01.201Z,19.74
2024-05-09T19:30:37.845Z,19.72
2024-05-09T19:33:10.203Z,19.29
2024-05-09T19:35:38.242Z,19.37
2024-05-09T19:38:05.646Z,19.24
2024-05-09T19:40:34.502Z,19.39
2024-05-09T19:43:03.292Z,19.39
2024-05-09T19:45:32.470Z,19.43
2024-05-09T19:48:00.182Z,19.48
2024-05-09T19:50:36.822Z,19.45
2024-05-09T19:53:10.740Z,19.29
2024-05-09T19:55:38.256Z,19.19
2024-05-09T19:58:07.172Z,19.06
2024-05-09T20:00:38.280Z,18.88
2024-05-09T20:03:07.883Z,18.95
2024-05-09T20:05:35.668Z,19.03
2024-05-09T20:08:03.531Z,19.03
2024-05-09T20:10:33.297Z,18.98
2024-05-09T20:13:03.095Z,18.98
2024-05-09T20:15:32.017Z,18.83
2024-05-09T20:17:59.320Z,18.90
2024-05-09T20:20:34.996Z,18.91
2024-05-09T20:23:07.507Z,18.92
2024-05-09T20:25:34.525Z,18.92
2024-05-09T20:28:01.665Z,18.88
2024-05-09T20:30:32.483Z,18.78
2024-05-09T20:33:05.758Z,18.65
2024-05-09T20:35:34.932Z,18.67
2024-05-09T20:38:03.227Z,18.46
2024-05-09T20:40:35.209Z,18.52
2024-05-09T20:43:05.895Z,18.53
2024-05-09T20:45:33.673Z,18.52
2024-05-09T20:48:01.279Z,18.58
2024-05-09T20:50:36.665Z,18.59
2024-05-09T20:53:15.125Z,18.62
2024-05-09T20:55:44.408Z,18.61
2024-05-09T20:58:12.332Z,18.59
2024-05-09T21:00:43.091Z,18.61
2024-05-09T21:03:13.474Z,18.55
2024-05-09T21:05:41.541Z,18.54
2024-05-09T21:08:09.218Z,18.52
2024-05-09T21:10:37.126Z,18.41
2024-05-09T21:13:06.482Z,18.52
2024-05-09T21:15:35.107Z,18.50
2024-05-09T21:18:02.997Z,18.45
2024-05-09T21:20:32.798Z,18.47
2024-05-09T21:23:01.807Z,18.51
2024-05-09T21:25:29.266Z,18.54
2024-05-09T21:27:56.284Z,18.49
2024-05-09T21:30:32.529Z,18.49
2024-05-09T21:33:13.736Z,18.45
2024-05-09T21:35:43.027Z,18.50
2024-05-09T21:38:10.341Z,18.51
2024-05-09T21:40:38.314Z,18.41
2024-05-09T21:43:07.178Z,18.38
2024-05-09T21:45:34.774Z,18.41
2024-05-09T21:48:05.679Z,18.29
2024-05-09T21:50:39.547Z,18.34
2024-05-09T21:53:09.102Z,18.36
2024-05-09T21:55:36.157Z,18.32
2024-05-09T21:58:03.509Z,18.33
2024-05-09T22:00:36.956Z,18.33
2024-05-09T22:03:10.757Z,18.36
2024-05-09T22:05:43.576Z,18.27
2024-05-09T22:08:11.079Z,18.29
2024-05-09T22:10:38.062Z,18.31
2024-05-09T22:13:06.607Z,18.31
2024-05-09T22:15:39.646Z,18.35
2024-05-09T22:18:08.832Z,18.26
2024-05-09T22:20:39.017Z,18.33
2024-05-09T22:23:07.797Z,18.31
2024-05-09T22:25:35.522Z,18.38
2024-05-09T22:28:03.190Z,18.39
2024-05-09T22:30:36.335Z,18.41
2024-05-09T22:33:07.785Z,18.45
2024-05-09T22:35:34.988Z,18.34
2024-05-09T22:38:04.865Z,18.39
2024-05-09T22:40:42.167Z,18.39
2024-05-09T22:43:17.870Z,18.33
2024-05-09T22:45:45.189Z,18.31
2024-05-09T22:48:12.140Z,18.29
2024-05-09T22:50:40.442Z,18.24
2024-05-09T22:53:07.323Z,18.16
2024-05-09T22:55:34.234Z,18.10
2024-05-09T22:58:01.275Z,17.86
2024-05-09T23:00:31.812Z,17.92
2024-05-09T23:03:01.099Z,17.99
2024-05-09T23:05:28.772Z,18.04
2024-05-09T23:07:55.844Z,17.96
2024-05-09T23:10:30.923Z,18.03
2024-05-09T23:13:02.437Z,18.06
2024-05-09T23:15:29.567Z,18.06
2024-05-09T23:17:57.433Z,18.08
2024-05-09T23:22:54.560Z,18.04
2024-05-09T23:25:21.477Z,18.05
2024-05-09T23:27:48.463Z,17.97
2024-05-09T23:30:25.851Z,17.99
2024-05-09T23:33:00.860Z,18.01
2024-05-09T23:35:27.982Z,18.01
2024-05-09T23:37:54.827Z,18.03
2024-05-09T23:40:23.436Z,18.09
2024-05-09T23:42:51.027Z,18.08
2024-05-09T23:45:17.864Z,18.06
2024-05-09T23:47:44.897Z,18.03
2024-05-09T23:50:16.960Z,18.04
2024-05-09T23:52:50.921Z,18.04
2024-05-09T23:55:18.055Z,18.06
2024-05-09T23:57:45.158Z,18.05
